Terminal Aerodrome Forecast
Issued by NWS Lake Charles, LA

Home | Current Version | Previous Version | Text Only | Print | Product List | Glossary On
Versions: 1 2 3 4 5 6 7 8 9 10 11 12 13 14 15 16 17 18 19 20 21
000
FTUS44 KLCH 261800 AAA
TAFBPT
TAF AMD
KBPT 261848Z 2619/2718 01012KT P6SM SCT025
     FM270500 03012KT P6SM BKN015
     FM271500 05015G20KT P6SM SCT020=

USA.gov is the U.S. government's official web portal to all federal, state and local government web resources and services.